createdAt,value
2023-05-07T00:04:15.176Z,8.18
2023-05-07T00:10:18.772Z,7.75
2023-05-07T00:16:23.862Z,7.43
2023-05-07T00:22:27.643Z,6.78
2023-05-07T00:28:31.071Z,8.13
2023-05-07T00:34:36.029Z,7.30
2023-05-07T00:40:39.722Z,6.43
2023-05-07T00:46:43.162Z,6.75
2023-05-07T00:52:47.965Z,6.85
2023-05-07T00:58:52.119Z,6.30
2023-05-07T01:04:56.059Z,7.07
2023-05-07T01:11:02.167Z,6.35
2023-05-07T01:17:06.041Z,7.70
2023-05-07T01:23:11.772Z,6.55
2023-05-07T01:29:15.199Z,6.95
2023-05-07T01:35:21.312Z,6.55
2023-05-07T01:41:26.088Z,6.75
2023-05-07T01:47:29.706Z,6.78
2023-05-07T01:53:38.395Z,6.55
2023-05-07T01:59:43.408Z,6.10
2023-05-07T02:05:46.873Z,6.85
2023-05-07T02:11:50.285Z,7.05
2023-05-07T02:18:06.160Z,7.25
2023-05-07T02:24:10.187Z,7.25
2023-05-07T02:30:14.208Z,7.38
2023-05-07T02:36:19.112Z,6.80
2023-05-07T02:42:22.557Z,6.88
2023-05-07T02:48:26.237Z,7.43
2023-05-07T02:54:31.164Z,7.60
2023-05-07T03:00:34.733Z,7.10
2023-05-07T03:06:38.168Z,7.15
2023-05-07T03:12:43.099Z,7.32
2023-05-07T03:18:46.559Z,6.95
2023-05-07T03:24:49.957Z,7.30
2023-05-07T03:30:54.715Z,7.18
2023-05-07T03:36:58.346Z,7.93
2023-05-07T03:43:02.612Z,7.70
2023-05-07T03:49:07.422Z,8.20
2023-05-07T03:55:11.386Z,7.47
2023-05-07T04:01:14.813Z,7.20
2023-05-07T04:07:20.005Z,7.68
2023-05-07T04:13:23.486Z,7.72
2023-05-07T04:19:27.282Z,8.95
2023-05-07T04:25:32.097Z,8.05
2023-05-07T04:31:35.644Z,7.65
2023-05-07T04:37:39.085Z,7.85
2023-05-07T04:43:44.106Z,7.95
2023-05-07T04:49:47.620Z,7.95
2023-05-07T04:55:51.342Z,8.52
2023-05-07T05:01:57.275Z,8.95
2023-05-07T05:08:00.818Z,8.43
2023-05-07T05:14:04.431Z,9.18
2023-05-07T05:20:11.274Z,9.05
2023-05-07T05:26:14.904Z,9.10
2023-05-07T05:32:18.303Z,9.02
2023-05-07T05:38:23.273Z,8.00
2023-05-07T05:44:26.850Z,7.93
2023-05-07T05:50:30.252Z,7.90
2023-05-07T05:56:35.117Z,8.75
2023-05-07T06:02:39.123Z,8.50
2023-05-07T06:08:42.861Z,8.70
2023-05-07T06:14:47.869Z,8.02
2023-05-07T06:20:51.301Z,8.57
2023-05-07T06:26:54.689Z,8.02
2023-05-07T06:32:59.869Z,8.95
2023-05-07T06:39:03.479Z,8.82
2023-05-07T06:45:07.441Z,7.32
2023-05-07T06:51:12.225Z,6.68
2023-05-07T06:57:15.679Z,7.00
2023-05-07T07:03:19.103Z,7.10
2023-05-07T07:09:24.198Z,7.45
2023-05-07T07:15:27.715Z,8.07
2023-05-07T07:21:31.541Z,8.57
2023-05-07T07:27:36.339Z,7.88
2023-05-07T07:33:40.523Z,9.00
2023-05-07T07:39:44.446Z,9.48
2023-05-07T07:45:49.245Z,8.82
2023-05-07T07:51:53.477Z,9.52
2023-05-07T07:57:56.888Z,9.75
2023-05-07T08:04:04.331Z,9.18
2023-05-07T08:10:08.245Z,9.05
2023-05-07T08:16:12.273Z,9.18
2023-05-07T08:22:18.771Z,8.38
2023-05-07T08:28:22.546Z,7.70
2023-05-07T08:34:26.252Z,7.90
2023-05-07T08:40:31.560Z,7.78
2023-05-07T08:46:35.346Z,7.32
2023-05-07T08:52:39.160Z,7.28
2023-05-07T08:58:44.404Z,6.65
2023-05-07T09:04:47.835Z,6.38
2023-05-07T09:10:51.669Z,4.10
2023-05-07T09:16:56.614Z,2.90
2023-05-07T09:23:00.113Z,2.90
2023-05-07T09:29:03.817Z,3.40
2023-05-07T09:35:10.810Z,2.67
2023-05-07T09:41:14.784Z,2.95
2023-05-07T09:47:21.255Z,2.08
2023-05-07T09:53:26.230Z,1.85
2023-05-07T09:59:30.514Z,2.25
2023-05-07T10:05:34.549Z,2.67
2023-05-07T10:11:39.796Z,3.25
2023-05-07T10:17:43.701Z,3.83
2023-05-07T10:23:48.464Z,4.30
2023-05-07T10:30:00.395Z,4.60
2023-05-07T10:36:05.543Z,4.60
2023-05-07T10:42:12.353Z,4.55
2023-05-07T10:48:29.598Z,6.00
2023-05-07T10:54:37.507Z,5.80
2023-05-07T11:00:45.632Z,3.67
2023-05-07T11:07:04.002Z,3.25
2023-05-07T11:13:09.228Z,2.90
2023-05-07T11:19:12.709Z,2.70
2023-05-07T11:25:21.021Z,2.65
2023-05-07T11:31:27.410Z,2.58
2023-05-07T11:37:31.679Z,4.38
2023-05-07T11:43:36.807Z,5.43
2023-05-07T11:49:41.964Z,5.82
2023-05-07T11:55:45.642Z,6.75
2023-05-07T12:01:50.056Z,6.97
2023-05-07T12:07:59.903Z,6.95
2023-05-07T12:14:04.866Z,7.97
2023-05-07T12:20:11.241Z,7.10
2023-05-07T12:26:16.076Z,7.03
2023-05-07T12:32:21.002Z,6.30
2023-05-07T12:38:24.477Z,5.85
2023-05-07T12:44:32.205Z,5.90
2023-05-07T12:50:35.978Z,5.45
2023-05-07T12:56:39.803Z,5.13
2023-05-07T13:02:46.090Z,5.18
2023-05-07T13:08:49.700Z,5.22
2023-05-07T13:14:53.299Z,4.10
2023-05-07T13:20:58.144Z,3.92
2023-05-07T13:27:01.662Z,3.67
2023-05-07T13:33:05.225Z,3.40
2023-05-07T13:39:10.464Z,4.80
2023-05-07T13:45:15.282Z,3.65
2023-05-07T13:51:19.233Z,3.00
2023-05-07T13:57:24.078Z,2.40
2023-05-07T14:03:27.685Z,1.80
2023-05-07T14:09:31.489Z,2.00
2023-05-07T14:15:36.494Z,1.70
2023-05-07T14:21:40.115Z,1.90
2023-05-07T14:27:43.691Z,2.00
2023-05-07T14:33:48.485Z,2.00
2023-05-07T14:39:51.880Z,1.90
2023-05-07T14:45:55.563Z,1.95
2023-05-07T14:52:01.751Z,1.80
2023-05-07T14:58:05.720Z,1.77
2023-05-07T15:04:09.211Z,2.13
2023-05-07T15:10:14.187Z,2.72
2023-05-07T15:16:17.726Z,2.47
2023-05-07T15:22:22.400Z,2.00
2023-05-07T15:28:27.967Z,2.20
2023-05-07T15:34:32.221Z,2.30
2023-05-07T15:40:36.716Z,2.95
2023-05-07T15:46:41.483Z,2.55
2023-05-07T15:52:47.097Z,2.70
2023-05-07T15:58:51.089Z,3.38
2023-05-07T16:04:56.266Z,3.63
2023-05-07T16:10:59.794Z,4.32
2023-05-07T16:17:03.341Z,4.30
2023-05-07T16:23:08.198Z,7.00
2023-05-07T16:29:11.616Z,7.90
2023-05-07T16:35:15.427Z,8.57
2023-05-07T16:41:20.867Z,10.20
2023-05-07T16:47:24.324Z,11.02
2023-05-07T16:53:27.767Z,10.93
2023-05-07T16:59:33.670Z,11.80
2023-05-07T17:05:37.327Z,11.88
2023-05-07T17:11:40.781Z,12.57
2023-05-07T17:17:45.608Z,11.60
2023-05-07T17:23:49.078Z,12.25
2023-05-07T17:29:52.501Z,11.52
2023-05-07T17:35:57.629Z,13.30
2023-05-07T17:42:01.108Z,13.23
2023-05-07T17:48:04.642Z,11.80
2023-05-07T17:54:09.568Z,12.63
2023-05-07T18:00:13.889Z,13.20
2023-05-07T18:06:20.245Z,15.35
2023-05-07T18:12:26.924Z,13.07
2023-05-07T18:18:32.381Z,12.23
2023-05-07T18:24:35.923Z,12.10
2023-05-07T18:30:41.102Z,13.25
2023-05-07T18:36:44.589Z,11.93
2023-05-07T18:42:47.958Z,12.23
2023-05-07T18:48:52.883Z,12.30
2023-05-07T18:54:56.446Z,12.02
2023-05-07T19:00:59.926Z,12.85
2023-05-07T19:07:04.800Z,13.77
2023-05-07T19:13:08.370Z,12.77
2023-05-07T19:19:12.018Z,13.50
2023-05-07T19:25:18.265Z,15.38
2023-05-07T19:31:22.135Z,14.30
2023-05-07T19:37:27.809Z,14.13
2023-05-07T19:43:36.402Z,13.90
2023-05-07T19:49:40.023Z,13.25
2023-05-07T19:55:43.562Z,13.40
2023-05-07T20:01:48.428Z,14.05
2023-05-07T20:07:51.868Z,14.75
2023-05-07T20:13:55.551Z,14.80
2023-05-07T20:20:00.723Z,15.27
2023-05-07T20:26:04.231Z,15.10
2023-05-07T20:32:07.807Z,16.73
2023-05-07T20:38:13.095Z,15.35
2023-05-07T20:44:17.217Z,16.42
2023-05-07T20:50:20.773Z,14.27
2023-05-07T20:56:26.637Z,13.60
2023-05-07T21:02:30.093Z,15.07
2023-05-07T21:08:33.634Z,15.95
2023-05-07T21:14:39.449Z,16.58
2023-05-07T21:20:43.149Z,16.90
2023-05-07T21:26:46.594Z,16.48
2023-05-07T21:32:53.306Z,17.23
2023-05-07T21:38:56.876Z,17.58
2023-05-07T21:45:00.294Z,17.50
2023-05-07T21:51:05.635Z,17.50
2023-05-07T21:57:09.307Z,18.55
2023-05-07T22:03:12.986Z,18.38
2023-05-07T22:09:17.880Z,17.52
2023-05-07T22:15:21.773Z,18.67
2023-05-07T22:21:25.257Z,18.38
2023-05-07T22:27:31.313Z,17.42
2023-05-07T22:33:35.072Z,16.85
2023-05-07T22:39:38.597Z,18.30
2023-05-07T22:45:43.674Z,17.92
2023-05-07T22:51:47.351Z,17.75
2023-05-07T22:57:50.805Z,16.30
2023-05-07T23:03:55.758Z,15.20
2023-05-07T23:09:59.226Z,14.57
2023-05-07T23:16:02.735Z,13.95
2023-05-07T23:22:07.662Z,14.00
2023-05-07T23:28:11.311Z,14.93
2023-05-07T23:34:14.888Z,14.68
2023-05-07T23:40:20.291Z,15.68
2023-05-07T23:46:24.795Z,15.05
2023-05-07T23:52:28.256Z,14.85
2023-05-07T23:58:33.056Z,14.73
